Time;durP1;ratioP1;P1;durP2;ratioP2;P2;SDS_P1;SDS_P2;PMS_P1;PMS_P2;Temp;Humidity;BMP_temperature;BMP_pressure;BME280_temperature;BME280_humidity;BME280_pressure;Samples;Min_cycle;Max_cycle;Signal;HPM_P1;HPM_P2
2021/11/12 00:03:03;;;;;;;59.20;33.20;;;;;;;4.51;76.65;100798.20;126504;1316;107978;-74
2021/11/12 00:13:05;;;;;;;63.00;37.00;;;;;;;4.87;76.72;100787.91;126566;1313;107806;-77
2021/11/12 00:16:11;;;;;;;63.90;34.00;;;;;;;4.95;76.86;100784.75;126417;1312;107911;-77
2021/11/12 00:19:18;;;;;;;65.50;37.00;;;;;;;5.02;76.98;100779.15;126439;1317;107913;-78
2021/11/12 00:22:25;;;;;;;66.70;35.50;;;;;;;5.12;77.13;100779.89;126525;1312;108820;-78
2021/11/12 00:25:30;;;;;;;63.20;36.20;;;;;;;5.23;77.08;100782.97;126683;1316;107627;-77
2021/11/12 00:28:38;;;;;;;64.20;36.00;;;;;;;5.35;77.03;100785.20;127055;1307;107781;-78
2021/11/12 00:31:49;;;;;;;61.90;34.90;;;;;;;5.43;77.05;100784.58;127009;1310;108724;-77
2021/11/12 00:38:10;;;;;;;75.90;39.80;;;;;;;5.54;77.34;100773.42;126721;1312;108709;-77
2021/11/12 00:41:21;;;;;;;64.60;34.90;;;;;;;5.58;77.34;100765.77;126492;1309;108665;-78
2021/11/12 00:44:32;;;;;;;69.50;35.80;;;;;;;5.63;77.23;100761.14;126691;1309;107882;-78
2021/11/12 00:47:46;;;;;;;66.80;36.60;;;;;;;5.71;77.52;100759.20;126947;1309;108899;-78
2021/11/12 00:54:17;;;;;;;74.50;40.40;;;;;;;5.86;77.51;100760.57;126849;1310;109032;-76
2021/11/12 00:57:23;;;;;;;62.50;33.50;;;;;;;5.87;77.54;100761.71;126888;1315;109193;-75
2021/11/12 01:00:28;;;;;;;65.70;33.60;;;;;;;5.90;77.55;100765.92;126934;1309;107656;-76
2021/11/12 01:03:35;;;;;;;61.70;31.70;;;;;;;5.94;77.49;100769.94;126932;1309;108887;-77
2021/11/12 01:06:42;;;;;;;60.30;32.90;;;;;;;5.98;77.63;100771.96;126952;1312;107884;-78
2021/11/12 01:09:47;;;;;;;63.90;34.90;;;;;;;6.02;77.50;100773.58;127018;1309;108866;-77
2021/11/12 01:12:53;;;;;;;66.50;34.30;;;;;;;6.06;77.62;100771.02;127023;1309;108876;-77
2021/11/12 01:15:59;;;;;;;59.30;33.20;;;;;;;6.08;77.86;100769.09;126852;1308;107853;-78
2021/11/12 01:19:06;;;;;;;59.20;31.70;;;;;;;6.08;77.72;100766.63;126598;1309;108015;-78
2021/11/12 01:22:11;;;;;;;63.90;34.20;;;;;;;6.09;77.74;100769.71;126773;1309;108749;-77
2021/11/12 01:25:21;;;;;;;59.80;31.70;;;;;;;6.13;77.96;100769.62;126441;1309;107789;-77
2021/11/12 01:28:26;;;;;;;54.60;31.30;;;;;;;6.18;77.94;100766.11;126956;1309;108886;-78
2021/11/12 01:31:32;;;;;;;53.40;31.10;;;;;;;6.25;78.02;100763.95;126895;1312;107785;-77
2021/11/12 01:34:37;;;;;;;54.10;31.50;;;;;;;6.29;77.86;100759.27;126911;1309;108603;-78
2021/11/12 01:37:45;;;;;;;58.10;30.00;;;;;;;6.28;77.96;100757.71;126894;1315;108606;-78
2021/11/12 01:40:51;;;;;;;62.60;31.70;;;;;;;6.28;78.22;100758.60;126800;1309;108623;-78
2021/11/12 01:43:58;;;;;;;54.90;30.10;;;;;;;6.29;78.37;100757.28;126781;1309;107754;-79
2021/11/12 01:47:17;;;;;;;57.60;31.80;;;;;;;6.33;78.34;100760.61;126860;1309;107797;-80
2021/11/12 01:50:25;;;;;;;61.10;32.30;;;;;;;6.37;78.26;100759.03;126608;1309;108895;-76
2021/11/12 01:53:35;;;;;;;51.60;28.80;;;;;;;6.41;78.28;100761.38;126361;1315;108719;-76
2021/11/12 01:56:43;;;;;;;49.70;26.50;;;;;;;6.42;78.20;100757.75;126535;1309;107782;-80
2021/11/12 01:59:48;;;;;;;46.50;24.90;;;;;;;6.44;78.32;100759.41;126825;1315;107792;-76
2021/11/12 02:02:56;;;;;;;51.10;26.90;;;;;;;6.46;78.29;100763.15;126807;1309;105623;-76
2021/11/12 02:06:01;;;;;;;50.30;27.30;;;;;;;6.50;78.16;100771.30;126637;1309;108668;-75
2021/11/12 02:09:14;;;;;;;49.90;28.10;;;;;;;6.53;78.25;100777.27;126527;1316;106841;-76
2021/11/12 02:12:22;;;;;;;;;;;;;;;6.56;78.52;100776.52;126554;1309;107492;-75
2021/11/12 02:15:28;;;;;;;50.70;25.40;;;;;;;6.57;78.45;100775.21;126666;1313;108821;-77
2021/11/12 02:18:37;;;;;;;45.00;24.70;;;;;;;6.57;78.57;100774.48;126505;1310;107932;-78
2021/11/12 02:21:50;;;;;;;41.50;22.20;;;;;;;6.59;78.59;100771.05;126429;1309;107822;-77
2021/11/12 02:24:59;;;;;;;44.50;23.90;;;;;;;6.61;78.51;100772.30;126433;1315;110090;-76
2021/11/12 02:28:08;;;;;;;47.70;25.50;;;;;;;6.65;78.63;100770.05;126283;1312;108807;-76
2021/11/12 02:31:14;;;;;;;41.60;23.40;;;;;;;6.68;78.53;100770.61;126334;1315;108912;-77
2021/11/12 02:34:20;;;;;;;43.60;25.00;;;;;;;6.69;78.65;100770.06;126502;1309;107732;-77
2021/11/12 02:37:27;;;;;;;36.50;19.60;;;;;;;6.66;78.85;100778.09;126659;1309;108737;-76
2021/11/12 02:40:34;;;;;;;36.40;18.90;;;;;;;6.66;78.83;100781.97;126378;1315;108765;-75
2021/11/12 02:43:41;;;;;;;46.40;25.50;;;;;;;6.68;78.77;100784.63;126557;1309;107903;-79
2021/11/12 02:46:47;;;;;;;44.90;24.90;;;;;;;6.71;78.97;100781.58;126846;1309;108938;-80
2021/11/12 02:49:55;;;;;;;41.70;22.90;;;;;;;6.74;78.73;100782.96;126402;1315;107755;-79
2021/11/12 02:53:03;;;;;;;42.30;22.50;;;;;;;6.74;79.90;100785.14;126555;1315;107500;-80
2021/11/12 02:56:13;;;;;;;37.50;19.60;;;;;;;6.68;79.92;100784.52;126536;1309;108948;-81
2021/11/12 02:59:18;;;;;;;39.40;20.80;;;;;;;6.62;79.60;100785.06;126560;1309;107801;-80
2021/11/12 03:02:24;;;;;;;39.40;21.70;;;;;;;6.62;80.21;100785.78;126631;1315;107795;-80
2021/11/12 03:05:32;;;;;;;36.60;20.30;;;;;;;6.65;80.40;100788.21;126822;1309;108007;-81
2021/11/12 03:08:37;;;;;;;35.80;19.80;;;;;;;6.66;80.07;100785.88;126884;1315;107905;-80
2021/11/12 03:11:44;;;;;;;33.50;17.80;;;;;;;6.64;80.16;100780.73;126618;1315;108574;-79
2021/11/12 03:14:50;;;;;;;37.40;18.90;;;;;;;6.62;80.23;100781.92;126538;1315;107816;-79
2021/11/12 03:17:58;;;;;;;37.40;20.20;;;;;;;6.57;80.78;100786.92;126580;1315;106778;-78
2021/11/12 03:21:04;;;;;;;39.20;20.70;;;;;;;6.57;80.40;100783.75;126818;1309;107904;-77
2021/11/12 03:24:16;;;;;;;38.40;20.40;;;;;;;6.62;80.33;100783.66;126904;1309;108789;-77
2021/11/12 03:27:26;;;;;;;35.90;19.00;;;;;;;6.66;80.33;100786.02;126919;1315;108907;-77
2021/11/12 04:05:06;;;;;;;33.10;17.50;;;;;;;6.55;81.09;100818.13;126934;1309;107899;-78
2021/11/12 04:18:29;;;;;;;37.90;20.60;;;;;;;6.68;80.79;100809.52;127206;1315;107837;-81
2021/11/12 04:21:48;;;;;;;35.20;19.80;;;;;;;6.70;80.89;100815.27;126650;1310;106782;-79
2021/11/12 05:12:46;;;;;;;45.10;21.90;;;;;;;6.67;81.09;100830.91;126442;1313;107945;-79
2021/11/12 05:46:37;;;;;;;52.10;26.80;;;;;;;6.82;81.18;100843.39;127118;1312;108915;-81
2021/11/12 05:49:49;;;;;;;74.10;35.00;;;;;;;6.87;80.91;100845.66;127121;1312;107685;-77
2021/11/12 05:56:17;;;;;;;100.60;45.80;;;;;;;6.90;80.82;100855.71;126794;1308;107802;-81
2021/11/12 05:59:24;;;;;;;41.70;23.00;;;;;;;6.93;80.99;100852.27;126793;1315;109720;-82
2021/11/12 06:02:29;;;;;;;128.60;57.00;;;;;;;6.95;80.97;100849.48;126967;1315;107787;-82
2021/11/12 06:05:35;;;;;;;75.10;34.80;;;;;;;6.99;80.75;100853.95;126970;1315;107788;-83
2021/11/12 06:08:41;;;;;;;107.30;44.40;;;;;;;7.04;80.88;100862.98;126837;1315;107816;-79
2021/11/12 06:11:47;;;;;;;75.80;31.80;;;;;;;7.09;80.85;100861.17;126752;1315;107848;-86
2021/11/12 06:14:53;;;;;;;106.70;43.80;;;;;;;7.14;80.61;100863.29;126910;1311;107936;-82
2021/11/12 06:17:59;;;;;;;96.00;41.00;;;;;;;7.16;80.79;100861.90;126855;1314;107887;-83
2021/11/12 06:21:05;;;;;;;58.00;24.50;;;;;;;7.17;80.48;100861.81;126804;1315;108997;-81
2021/11/12 06:24:11;;;;;;;46.10;24.40;;;;;;;7.20;80.58;100860.73;126810;1315;108916;-82
2021/11/12 06:27:17;;;;;;;38.90;21.80;;;;;;;7.23;81.00;100859.04;126756;1309;107779;-79
2021/11/12 06:30:22;;;;;;;40.70;21.80;;;;;;;7.27;80.59;100863.18;126854;1310;107718;-81
2021/11/12 06:33:29;;;;;;;42.80;23.10;;;;;;;7.28;80.90;100867.67;126631;1315;108400;-80
2021/11/12 06:36:34;;;;;;;46.10;25.50;;;;;;;7.30;80.53;100873.54;126560;1313;107999;-79
2021/11/12 06:39:40;;;;;;;62.70;30.20;;;;;;;7.26;80.29;100877.91;126881;1315;107921;-80
2021/11/12 06:43:00;;;;;;;74.70;32.10;;;;;;;7.22;80.62;100885.64;126702;1309;108214;-82
2021/11/12 06:49:30;;;;;;;62.80;30.10;;;;;;;7.09;80.82;100900.61;126717;1309;107627;-83
2021/11/12 06:52:36;;;;;;;69.50;29.40;;;;;;;7.11;80.74;100896.42;127291;1309;107701;-81
2021/11/12 06:55:42;;;;;;;143.90;63.10;;;;;;;7.13;80.78;100895.77;127098;1313;107772;-81
2021/11/12 06:58:48;;;;;;;130.50;46.90;;;;;;;7.15;80.90;100895.05;126801;1312;105846;-79
2021/11/12 07:01:53;;;;;;;499.50;164.10;;;;;;;7.18;80.77;100898.40;126652;1309;107805;-87
2021/11/12 07:04:59;;;;;;;408.70;140.20;;;;;;;7.21;80.69;100897.58;126856;1310;107760;-80
2021/11/12 07:08:05;;;;;;;105.00;46.70;;;;;;;7.25;80.68;100896.73;127014;1312;108824;-85
2021/11/12 07:11:24;;;;;;;61.50;31.90;;;;;;;7.28;80.43;100897.07;126792;1316;108718;-90
2021/11/12 07:14:30;;;;;;;58.90;32.60;;;;;;;7.33;80.58;100901.64;126907;1313;107880;-87
2021/11/12 07:17:35;;;;;;;42.80;22.50;;;;;;;7.35;80.49;100901.73;126921;1309;108842;-80
2021/11/12 07:20:45;;;;;;;40.80;20.80;;;;;;;7.37;80.67;100907.37;126727;1312;105911;-89
2021/11/12 07:23:51;;;;;;;77.30;34.40;;;;;;;7.42;80.68;100901.52;126793;1313;106782;-86
2021/11/12 07:27:00;;;;;;;91.70;38.40;;;;;;;7.49;80.51;100899.55;127112;1309;107629;-87
2021/11/12 07:30:12;;;;;;;148.70;56.30;;;;;;;7.55;80.71;100902.82;126688;1309;107851;-88
2021/11/12 07:33:18;;;;;;;73.60;32.80;;;;;;;7.59;80.20;100905.68;126893;1309;106423;-78
2021/11/12 07:36:25;;;;;;;83.60;37.20;;;;;;;7.60;80.05;100902.47;127133;1309;107641;-88
2021/11/12 07:39:48;;;;;;;171.10;61.60;;;;;;;7.58;80.26;100903.83;126577;1310;107713;-87
2021/11/12 07:43:19;;;;;;;66.30;29.60;;;;;;;7.58;80.15;100901.73;126850;1315;107792;-87
2021/11/12 07:46:36;;;;;;;47.50;23.40;;;;;;;7.62;80.32;100901.60;126903;1309;107815;-82
2021/11/12 07:49:45;;;;;;;44.20;23.00;;;;;;;7.68;80.42;100901.86;127079;1307;108674;-84
2021/11/12 07:52:51;;;;;;;99.10;56.70;;;;;;;7.73;80.37;100909.95;126671;1312;107797;-83
2021/11/12 07:55:59;;;;;;;53.40;29.20;;;;;;;7.74;80.16;100906.15;126689;1312;108739;-85
2021/11/12 07:59:12;;;;;;;45.50;23.90;;;;;;;7.74;80.38;100905.59;127085;1312;107593;-86
2021/11/12 08:02:20;;;;;;;42.80;21.90;;;;;;;7.74;80.38;100914.27;126681;1315;107941;-86
2021/11/12 08:05:28;;;;;;;39.20;20.40;;;;;;;7.74;80.16;100911.07;126672;1315;107997;-90
2021/11/12 08:08:49;;;;;;;49.60;24.40;;;;;;;7.78;80.22;100910.23;126989;1315;108920;-87
2021/11/12 08:12:18;;;;;;;51.20;25.40;;;;;;;7.85;80.36;100909.02;126983;1309;107747;-88
2021/11/12 08:18:57;;;;;;;64.50;31.40;;;;;;;7.92;79.98;100906.91;127098;1315;108684;-85
2021/11/12 08:22:06;;;;;;;58.00;25.90;;;;;;;7.94;80.11;100909.94;126790;1312;109073;-89
2021/11/12 08:25:21;;;;;;;71.90;31.50;;;;;;;7.97;80.17;100908.96;126775;1309;107795;-88
2021/11/12 08:28:53;;;;;;;59.10;28.00;;;;;;;8.01;79.79;100904.04;126869;1313;108869;-82
2021/11/12 08:32:24;;;;;;;54.70;26.80;;;;;;;8.08;79.70;100910.40;126991;1309;108725;-84
2021/11/12 08:35:38;;;;;;;58.00;27.80;;;;;;;8.12;79.94;100909.02;126785;1310;108625;-80
2021/11/12 08:38:51;;;;;;;98.60;47.30;;;;;;;8.15;79.66;100909.48;126669;1312;107849;-83
2021/11/12 08:41:58;;;;;;;100.90;46.90;;;;;;;8.17;79.75;100915.18;126759;1309;107727;-82
2021/11/12 08:45:07;;;;;;;117.20;50.50;;;;;;;8.17;79.91;100920.35;127160;1309;107813;-86
2021/11/12 08:48:17;;;;;;;74.00;33.90;;;;;;;8.15;79.67;100916.08;126751;1312;108638;-86
2021/11/12 08:51:23;;;;;;;65.40;29.90;;;;;;;8.16;79.69;100916.85;127205;1308;107814;-92
2021/11/12 08:54:32;;;;;;;77.70;38.30;;;;;;;8.18;79.55;100918.80;127239;1309;107962;-91
2021/11/12 08:57:38;;;;;;;63.50;31.50;;;;;;;8.22;79.55;100920.30;127002;1309;107869;-88
2021/11/12 09:00:45;;;;;;;55.90;28.40;;;;;;;8.26;79.40;100913.21;127339;1315;107871;-90
2021/11/12 09:03:52;;;;;;;55.10;27.40;;;;;;;8.27;79.37;100915.66;127133;1309;107782;-88
2021/11/12 09:06:59;;;;;;;50.30;23.50;;;;;;;8.27;79.27;100913.52;126816;1309;107928;-91
2021/11/12 09:10:06;;;;;;;52.00;24.50;;;;;;;8.28;79.43;100912.59;127045;1312;107616;-87
2021/11/12 09:13:18;;;;;;;53.20;26.70;;;;;;;8.31;79.60;100915.31;127089;1309;107638;-87
2021/11/12 09:16:30;;;;;;;53.50;27.50;;;;;;;8.41;79.50;100909.05;126966;1312;107914;-84
2021/11/12 09:19:44;;;;;;;84.10;41.90;;;;;;;8.51;79.23;100905.96;126923;1315;107668;-84
2021/11/12 09:22:51;;;;;;;60.90;30.20;;;;;;;8.57;79.19;100904.04;126784;1309;106746;-85
2021/11/12 09:25:57;;;;;;;54.70;28.10;;;;;;;8.59;79.00;100902.44;126768;1311;106750;-81
2021/11/12 09:29:02;;;;;;;52.30;25.60;;;;;;;8.62;78.77;100902.58;126982;1315;108026;-83
2021/11/12 09:32:09;;;;;;;59.30;29.40;;;;;;;8.65;78.98;100900.02;126826;1313;108650;-90
2021/11/12 09:35:14;;;;;;;55.00;28.30;;;;;;;8.73;79.04;100898.88;126770;1309;108782;-80
2021/11/12 09:38:20;;;;;;;56.90;28.00;;;;;;;8.82;79.02;100898.48;127025;1307;107610;-84
2021/11/12 09:41:27;;;;;;;69.10;33.50;;;;;;;8.89;78.89;100895.27;126946;1313;107875;-84
2021/11/12 09:44:34;;;;;;;56.90;28.80;;;;;;;8.92;78.75;100895.72;126973;1309;107787;-89
2021/11/12 09:47:40;;;;;;;96.50;59.70;;;;;;;8.95;78.69;100898.27;126888;1309;108828;-82
2021/11/12 09:50:46;;;;;;;57.20;29.70;;;;;;;8.97;78.67;100898.81;127042;1309;107930;-85
2021/11/12 09:53:51;;;;;;;55.30;25.10;;;;;;;8.99;78.76;100895.98;126982;1312;108852;-84
2021/11/12 09:56:57;;;;;;;57.30;29.00;;;;;;;9.06;78.84;100898.86;126832;1309;108738;-80
2021/11/12 10:00:09;;;;;;;52.50;26.90;;;;;;;9.10;78.64;100896.15;126905;1309;108719;-83
2021/11/12 10:03:21;;;;;;;53.20;27.50;;;;;;;9.17;78.58;100890.13;126681;1313;107876;-84
2021/11/12 10:06:28;;;;;;;55.20;28.40;;;;;;;9.20;78.51;100894.50;126658;1309;107852;-82
2021/11/12 10:09:33;;;;;;;57.00;28.80;;;;;;;9.22;78.35;100891.63;126921;1309;107903;-83
2021/11/12 10:12:42;;;;;;;58.40;28.10;;;;;;;9.23;78.28;100889.92;126885;1309;107816;-86
2021/11/12 10:15:54;;;;;;;66.60;33.60;;;;;;;9.26;78.33;100878.48;126637;1309;107918;-84
2021/11/12 10:19:11;;;;;;;52.60;25.80;;;;;;;9.31;78.25;100878.62;127056;1307;107735;-87
2021/11/12 10:22:22;;;;;;;75.80;43.20;;;;;;;9.39;78.23;100880.55;126937;1309;108782;-87
2021/11/12 10:25:27;;;;;;;93.70;54.80;;;;;;;9.47;78.23;100875.34;126675;1310;107920;-86
2021/11/12 10:28:38;;;;;;;88.00;50.60;;;;;;;9.58;78.02;100874.59;126795;1309;107796;-89
2021/11/12 10:31:47;;;;;;;123.00;78.00;;;;;;;9.61;77.89;100872.64;126725;1309;108760;-88
2021/11/12 10:34:56;;;;;;;84.60;51.30;;;;;;;9.63;78.00;100870.35;127107;1308;108376;-89
2021/11/12 10:38:10;;;;;;;73.20;41.90;;;;;;;9.61;77.77;100873.96;127003;1309;108916;-89
2021/11/12 10:41:22;;;;;;;79.80;42.80;;;;;;;9.58;77.79;100866.04;126886;1309;106757;-86
2021/11/12 10:44:28;;;;;;;66.90;34.40;;;;;;;9.55;78.00;100859.38;126724;1309;109483;-86
2021/11/12 10:47:37;;;;;;;83.70;48.10;;;;;;;9.55;77.87;100857.91;126997;1309;106859;-85
2021/11/12 10:50:45;;;;;;;58.70;31.20;;;;;;;9.59;77.84;100854.38;126936;1309;106892;-84
2021/11/12 10:53:53;;;;;;;148.40;93.90;;;;;;;9.61;77.70;100851.86;126854;1310;107797;-89
2021/11/12 10:56:58;;;;;;;95.20;52.70;;;;;;;9.61;77.64;100851.49;126602;1309;106776;-82
2021/11/12 11:00:12;;;;;;;67.90;35.50;;;;;;;9.60;77.68;100846.65;126676;1309;107775;-86
2021/11/12 11:03:25;;;;;;;72.40;41.20;;;;;;;9.61;77.59;100840.58;127196;1309;107261;-86
2021/11/12 11:06:31;;;;;;;64.70;33.40;;;;;;;9.58;77.48;100839.73;127226;1309;107652;-88
2021/11/12 11:09:40;;;;;;;57.10;27.70;;;;;;;9.57;77.58;100839.00;127341;1313;107811;-84
2021/11/12 11:12:47;;;;;;;132.70;85.90;;;;;;;9.57;77.37;100839.98;128296;1307;107876;-85
2021/11/12 11:15:54;;;;;;;71.20;39.10;;;;;;;9.59;77.35;100839.98;128191;1307;107588;-85
2021/11/12 11:19:01;;;;;;;70.40;38.70;;;;;;;9.62;77.59;100837.26;127617;1309;107122;-86
2021/11/12 11:22:11;;;;;;;65.30;34.10;;;;;;;9.65;77.36;100830.77;129226;1309;107797;-87
2021/11/12 11:25:16;;;;;;;59.70;31.10;;;;;;;9.66;77.14;100835.32;127201;1312;107897;-83
2021/11/12 11:28:23;;;;;;;57.20;29.60;;;;;;;9.64;77.28;100833.37;126824;1309;107621;-81
2021/11/12 11:31:36;;;;;;;55.20;27.70;;;;;;;9.61;77.28;100827.21;127049;1310;108827;-82
2021/11/12 11:34:44;;;;;;;53.30;27.00;;;;;;;9.60;77.20;100825.52;126833;1308;107680;-81
2021/11/12 11:37:54;;;;;;;59.30;30.70;;;;;;;9.61;77.19;100825.44;126827;1309;107922;-83
2021/11/12 11:41:02;;;;;;;55.20;29.40;;;;;;;9.66;77.13;100821.86;126701;1310;107280;-82
2021/11/12 11:44:08;;;;;;;58.30;30.20;;;;;;;9.69;77.18;100818.94;126901;1308;109253;-83
2021/11/12 11:47:19;;;;;;;61.10;31.60;;;;;;;9.73;77.04;100818.20;126966;1309;107905;-83
2021/11/12 11:50:27;;;;;;;56.10;30.40;;;;;;;9.73;77.11;100819.94;128276;1309;107892;-80
2021/11/12 11:53:38;;;;;;;56.10;29.90;;;;;;;9.71;76.93;100816.54;127232;1308;107764;-83
2021/11/12 11:56:45;;;;;;;57.00;27.60;;;;;;;9.66;76.71;100816.83;126954;1308;107863;-81
2021/11/12 12:00:11;;;;;;;54.60;26.70;;;;;;;9.62;76.90;100815.91;127038;1309;107775;-83
2021/11/12 12:03:23;;;;;;;50.70;27.00;;;;;;;9.64;76.95;100808.17;127235;1312;107944;-83
2021/11/12 12:06:29;;;;;;;55.60;29.80;;;;;;;9.69;76.94;100804.54;127189;1306;107894;-83
2021/11/12 12:09:47;;;;;;;57.80;30.00;;;;;;;9.69;76.66;100801.81;127170;1308;107791;-81
2021/11/12 12:12:58;;;;;;;50.50;28.60;;;;;;;9.70;76.84;100803.73;127030;1308;107849;-83
2021/11/12 12:16:08;;;;;;;54.00;29.60;;;;;;;9.68;76.88;100800.52;127109;1307;107785;-79
2021/11/12 12:19:45;;;;;;;55.60;29.90;;;;;;;9.66;76.66;100798.55;126877;1310;107794;-78
2021/11/12 12:37:11;;;;;;;49.40;27.60;;;;;;;9.72;76.53;100780.95;126950;1306;215854;-85
2021/11/12 13:21:55;;;;;;;57.50;31.30;;;;;;;9.41;76.03;100765.17;126436;1310;107592;-85
2021/11/12 13:25:01;;;;;;;59.30;32.00;;;;;;;9.36;76.17;100764.54;126962;1309;107841;-81
2021/11/12 13:28:21;;;;;;;58.00;32.70;;;;;;;9.38;76.19;100758.70;126916;1307;107793;-77
2021/11/12 13:31:27;;;;;;;66.20;37.00;;;;;;;9.38;75.96;100762.11;126718;1309;107875;-83
2021/11/12 13:34:42;;;;;;;63.40;35.40;;;;;;;9.35;75.90;100764.15;127209;1308;107454;-77
2021/11/12 13:37:53;;;;;;;63.00;34.30;;;;;;;9.29;75.97;100767.13;127057;1309;107903;-79
2021/11/12 13:41:04;;;;;;;60.00;33.70;;;;;;;9.21;75.88;100767.98;126920;1309;107769;-82
2021/11/12 13:44:11;;;;;;;60.80;31.00;;;;;;;9.14;76.00;100767.86;127003;1309;108750;-80
2021/11/12 13:47:21;;;;;;;52.40;28.00;;;;;;;9.09;76.05;100774.16;126904;1309;107844;-80
2021/11/12 13:50:27;;;;;;;57.60;31.50;;;;;;;9.07;76.14;100775.08;126758;1311;108376;-79
2021/11/12 13:53:34;;;;;;;60.90;31.90;;;;;;;9.08;76.03;100773.73;126383;1309;108801;-80
2021/11/12 13:56:39;;;;;;;54.90;31.40;;;;;;;9.09;76.04;100776.65;126872;1309;107787;-80
2021/11/12 13:59:57;;;;;;;54.10;31.50;;;;;;;9.08;75.90;100772.52;126642;1309;105630;-82
2021/11/12 14:03:06;;;;;;;50.20;30.30;;;;;;;9.04;75.80;100770.52;126561;1309;107788;-83
2021/11/12 14:06:12;;;;;;;54.80;32.50;;;;;;;8.98;75.79;100775.64;126764;1309;108530;-84
2021/11/12 14:09:21;;;;;;;54.20;30.40;;;;;;;8.91;75.98;100773.85;126492;1309;107708;-80
2021/11/12 14:12:27;;;;;;;43.70;24.40;;;;;;;8.86;75.69;100774.14;126472;1312;108820;-77
2021/11/12 14:15:36;;;;;;;41.20;24.50;;;;;;;8.80;75.82;100776.22;126465;1309;107779;-78
2021/11/12 14:19:10;;;;;;;40.30;24.80;;;;;;;8.80;75.86;100781.25;126646;1309;107871;-83
2021/11/12 14:22:32;;;;;;;42.50;24.30;;;;;;;8.80;75.84;100778.58;126489;1309;107824;-79
2021/11/12 14:26:02;;;;;;;40.70;24.50;;;;;;;8.79;75.79;100776.16;126416;1309;107875;-79
2021/11/12 14:29:10;;;;;;;51.70;31.50;;;;;;;8.73;75.83;100775.20;126468;1309;108763;-84
2021/11/12 14:32:37;;;;;;;52.70;31.70;;;;;;;8.70;75.80;100771.79;126850;1309;107808;-86
2021/11/12 14:35:52;;;;;;;47.30;27.10;;;;;;;8.63;75.86;100772.63;126700;1309;107893;-82
2021/11/12 14:39:16;;;;;;;47.60;26.00;;;;;;;8.58;75.80;100765.42;126831;1310;107918;-81
2021/11/12 14:45:51;;;;;;;50.40;29.10;;;;;;;8.56;75.87;100777.02;126672;1309;107366;-80
2021/11/12 14:49:10;;;;;;;55.00;31.30;;;;;;;8.56;76.05;100779.60;126544;1309;107686;-83
2021/11/12 14:52:18;;;;;;;57.50;32.90;;;;;;;8.56;75.67;100777.86;126813;1309;107786;-81
2021/11/12 14:55:24;;;;;;;55.90;31.20;;;;;;;8.54;75.69;100772.36;126624;1309;107863;-80
2021/11/12 14:58:30;;;;;;;48.90;27.10;;;;;;;8.50;75.92;100778.02;126519;1309;107663;-81
2021/11/12 15:01:38;;;;;;;50.90;25.50;;;;;;;8.46;75.82;100779.44;126760;1312;107877;-79
2021/11/12 15:04:45;;;;;;;43.80;23.40;;;;;;;8.42;75.96;100779.04;126604;1309;108609;-81
2021/11/12 15:07:54;;;;;;;45.50;25.40;;;;;;;8.43;76.01;100775.96;126570;1312;107814;-82
2021/11/12 15:11:02;;;;;;;38.20;22.90;;;;;;;8.43;75.99;100781.45;126464;1309;106795;-82
2021/11/12 15:14:09;;;;;;;50.70;28.90;;;;;;;8.45;75.96;100784.33;126840;1309;107809;-82
2021/11/12 15:17:15;;;;;;;55.80;26.70;;;;;;;8.47;75.80;100782.52;126688;1309;106530;-81
2021/11/12 15:20:21;;;;;;;65.90;30.50;;;;;;;8.47;75.99;100779.36;126806;1310;107765;-81
2021/11/12 15:23:40;;;;;;;51.60;27.00;;;;;;;8.44;75.77;100778.55;126810;1309;107801;-80
2021/11/12 15:27:03;;;;;;;46.00;24.60;;;;;;;8.40;76.01;100782.88;126572;1309;107756;-80
2021/11/12 15:30:16;;;;;;;43.20;23.40;;;;;;;8.36;76.18;100780.90;126682;1309;107916;-83
2021/11/12 15:33:24;;;;;;;54.40;27.90;;;;;;;8.37;76.16;100786.33;126608;1309;107818;-85
2021/11/12 15:36:33;;;;;;;64.20;36.30;;;;;;;8.42;76.22;100788.27;126719;1309;108018;-86
2021/11/12 15:39:55;;;;;;;92.60;42.30;;;;;;;8.43;76.01;100779.27;126582;1309;107932;-88
2021/11/12 15:43:13;;;;;;;100.20;41.40;;;;;;;8.44;76.20;100782.23;126540;1309;107963;-79
2021/11/12 15:46:22;;;;;;;122.10;71.10;;;;;;;8.42;76.05;100785.06;126711;1312;108837;-80
2021/11/12 15:49:28;;;;;;;84.20;45.80;;;;;;;8.37;76.07;100784.75;126792;1309;107872;-80
2021/11/12 15:52:41;;;;;;;74.70;32.70;;;;;;;8.34;76.17;100791.93;126881;1309;108719;-83
2021/11/12 15:59:24;;;;;;;125.10;67.00;;;;;;;8.29;76.12;100797.48;126777;1309;107757;-87
2021/11/12 16:02:55;;;;;;;67.50;34.90;;;;;;;8.29;76.24;100796.42;127078;1308;107695;-85
2021/11/12 16:09:39;;;;;;;61.40;31.80;;;;;;;8.33;76.17;100801.02;127149;1309;107844;-87
2021/11/12 16:12:50;;;;;;;53.50;30.10;;;;;;;8.32;76.30;100801.28;126959;1308;107660;-81
2021/11/12 16:16:18;;;;;;;122.20;64.70;;;;;;;8.31;76.33;100799.95;126707;1309;107397;-83
2021/11/12 16:19:32;;;;;;;76.70;42.30;;;;;;;8.30;76.38;100805.00;126506;1312;108101;-85
2021/11/12 16:26:01;;;;;;;78.10;37.60;;;;;;;8.32;76.07;100799.70;126713;1312;107841;-81
2021/11/12 16:29:20;;;;;;;71.60;38.00;;;;;;;8.35;76.12;100799.28;126937;1309;105695;-83
2021/11/12 16:32:37;;;;;;;88.50;42.30;;;;;;;8.36;76.11;100802.16;126804;1309;108990;-82
2021/11/12 16:35:43;;;;;;;102.00;46.00;;;;;;;8.33;76.09;100807.21;126622;1309;107893;-79
2021/11/12 16:38:49;;;;;;;67.30;33.90;;;;;;;8.28;75.97;100809.06;126832;1309;108792;-81
2021/11/12 16:42:05;;;;;;;65.60;30.60;;;;;;;8.23;76.40;100811.02;126938;1307;107845;-81
2021/11/12 16:45:19;;;;;;;67.60;34.90;;;;;;;8.20;76.41;100809.67;126943;1310;108775;-83
2021/11/12 16:48:43;;;;;;;61.00;35.10;;;;;;;8.22;76.65;100811.11;126666;1309;107809;-84
2021/11/12 16:52:04;;;;;;;68.90;38.10;;;;;;;8.25;76.34;100812.94;126832;1310;107367;-83
2021/11/12 16:55:20;;;;;;;59.90;31.40;;;;;;;8.29;76.31;100810.73;126950;1313;107789;-82
2021/11/12 16:58:32;;;;;;;71.00;33.80;;;;;;;8.27;76.42;100817.45;127092;1309;107818;-84
2021/11/12 17:05:09;;;;;;;77.10;34.80;;;;;;;8.20;76.35;100824.05;126310;1309;109192;-83
2021/11/12 17:08:28;;;;;;;73.00;30.80;;;;;;;8.15;76.57;100821.42;126857;1309;107894;-83
2021/11/12 17:11:39;;;;;;;64.00;28.80;;;;;;;8.12;76.45;100826.29;126726;1315;107851;-83
2021/11/12 17:14:53;;;;;;;62.60;28.70;;;;;;;8.12;76.49;100833.05;126720;1312;107434;-81
2021/11/12 17:18:17;;;;;;;68.20;32.00;;;;;;;8.13;76.48;100829.23;126970;1309;107875;-81
2021/11/12 17:22:18;;;;;;;58.50;29.10;;;;;;;8.15;76.54;100828.67;126655;1309;106668;-82
2021/11/12 17:46:23;;;;;;;81.40;42.20;;;;;;;8.17;76.62;100802.48;126996;1309;107780;-79
2021/11/12 18:03:21;;;;;;;98.20;46.80;;;;;;;8.09;76.81;100793.06;126778;1312;108677;-84
2021/11/12 18:06:30;;;;;;;81.00;39.10;;;;;;;8.10;76.68;100793.66;126908;1308;108014;-77
2021/11/12 18:10:10;;;;;;;115.40;47.90;;;;;;;8.12;76.69;100791.20;126664;1312;108806;-78
2021/11/12 21:46:15;;;;;;;34.20;19.60;;;;;;;7.59;77.32;100686.66;126809;1309;107861;-77
2021/11/12 21:49:20;;;;;;;37.10;19.40;;;;;;;7.57;77.54;100676.42;126825;1312;106786;-77
2021/11/12 21:52:26;;;;;;;34.00;19.10;;;;;;;7.53;77.40;100670.55;126570;1312;107735;-76
2021/11/12 21:55:32;;;;;;;32.20;17.40;;;;;;;7.46;77.48;100669.98;126775;1309;108988;-77
2021/11/12 21:58:38;;;;;;;31.10;16.80;;;;;;;7.41;77.59;100661.38;126549;1308;106655;-76
2021/11/12 22:01:45;;;;;;;37.20;20.00;;;;;;;7.39;77.78;100661.33;126703;1310;107839;-77
2021/11/12 22:04:50;;;;;;;33.50;17.80;;;;;;;7.41;77.61;100662.76;126957;1313;108756;-78